sensor_id;sensor_type;location;lat;lon;timestamp;pressure;altitude;pressure_sealevel;temperature;humidity
60642;BME280;46837;52.446;-1.930;2023-05-31T00:00:09;101603.66;;;11.57;74.62
60642;BME280;46837;52.446;-1.930;2023-05-31T00:01:09;101603.21;;;11.64;74.36
60642;BME280;46837;52.446;-1.930;2023-05-31T00:02:09;101605.37;;;11.65;74.32
60642;BME280;46837;52.446;-1.930;2023-05-31T00:03:09;101604.41;;;11.61;74.39
60642;BME280;46837;52.446;-1.930;2023-05-31T00:04:09;101597.33;;;11.60;74.59
60642;BME280;46837;52.446;-1.930;2023-05-31T00:05:09;101604.95;;;11.64;74.25
60642;BME280;46837;52.446;-1.930;2023-05-31T00:06:09;101601.32;;;11.63;74.29
60642;BME280;46837;52.446;-1.930;2023-05-31T00:07:09;101594.58;;;11.67;74.22
60642;BME280;46837;52.446;-1.930;2023-05-31T00:08:09;101601.01;;;11.61;74.49
60642;BME280;46837;52.446;-1.930;2023-05-31T00:09:09;101598.86;;;11.63;74.38
60642;BME280;46837;52.446;-1.930;2023-05-31T00:10:09;101594.93;;;11.64;74.43
60642;BME280;46837;52.446;-1.930;2023-05-31T00:11:09;101594.77;;;11.64;74.34
60642;BME280;46837;52.446;-1.930;2023-05-31T00:12:09;101590.00;;;11.66;74.41
60642;BME280;46837;52.446;-1.930;2023-05-31T00:13:09;101592.00;;;11.70;74.39
60642;BME280;46837;52.446;-1.930;2023-05-31T00:14:09;101588.59;;;11.73;74.15
60642;BME280;46837;52.446;-1.930;2023-05-31T00:15:09;101585.56;;;11.71;74.53
60642;BME280;46837;52.446;-1.930;2023-05-31T00:16:09;101587.34;;;11.72;74.51
60642;BME280;46837;52.446;-1.930;2023-05-31T00:17:09;101588.14;;;11.71;74.64
60642;BME280;46837;52.446;-1.930;2023-05-31T00:18:09;101586.17;;;11.68;74.76
60642;BME280;46837;52.446;-1.930;2023-05-31T00:19:09;101594.65;;;11.63;75.23
60642;BME280;46837;52.446;-1.930;2023-05-31T00:20:09;101594.46;;;11.62;75.09
60642;BME280;46837;52.446;-1.930;2023-05-31T00:21:09;101594.49;;;11.59;75.22
60642;BME280;46837;52.446;-1.930;2023-05-31T00:22:09;101591.69;;;11.61;75.28
60642;BME280;46837;52.446;-1.930;2023-05-31T00:23:09;101596.25;;;11.64;75.13
60642;BME280;46837;52.446;-1.930;2023-05-31T00:24:09;101593.99;;;11.58;75.26
60642;BME280;46837;52.446;-1.930;2023-05-31T00:25:09;101597.02;;;11.54;75.49
60642;BME280;46837;52.446;-1.930;2023-05-31T00:26:09;101591.84;;;11.48;75.81
60642;BME280;46837;52.446;-1.930;2023-05-31T00:27:09;101590.73;;;11.49;75.65
60642;BME280;46837;52.446;-1.930;2023-05-31T00:28:09;101590.53;;;11.48;75.85
60642;BME280;46837;52.446;-1.930;2023-05-31T00:29:09;101594.86;;;11.47;75.87
60642;BME280;46837;52.446;-1.930;2023-05-31T00:30:09;101588.48;;;11.43;76.21
60642;BME280;46837;52.446;-1.930;2023-05-31T00:31:09;101591.55;;;11.46;76.22
60642;BME280;46837;52.446;-1.930;2023-05-31T00:32:09;101588.45;;;11.50;76.05
60642;BME280;46837;52.446;-1.930;2023-05-31T00:33:09;101584.32;;;11.46;76.32
60642;BME280;46837;52.446;-1.930;2023-05-31T00:34:09;101588.95;;;11.50;76.05
60642;BME280;46837;52.446;-1.930;2023-05-31T00:35:09;101585.27;;;11.52;76.20
60642;BME280;46837;52.446;-1.930;2023-05-31T00:36:09;101584.00;;;11.51;76.25
60642;BME280;46837;52.446;-1.930;2023-05-31T00:37:09;101586.77;;;11.49;76.19
60642;BME280;46837;52.446;-1.930;2023-05-31T00:38:09;101588.83;;;11.53;76.28
60642;BME280;46837;52.446;-1.930;2023-05-31T00:39:09;101584.03;;;11.56;76.13
60642;BME280;46837;52.446;-1.930;2023-05-31T00:40:09;101583.62;;;11.63;75.97
60642;BME280;46837;52.446;-1.930;2023-05-31T00:41:09;101584.55;;;11.67;75.84
60642;BME280;46837;52.446;-1.930;2023-05-31T00:42:09;101588.90;;;11.69;75.96
60642;BME280;46837;52.446;-1.930;2023-05-31T00:43:09;101590.52;;;11.73;76.00
60642;BME280;46837;52.446;-1.930;2023-05-31T00:44:09;101586.33;;;11.79;75.86
60642;BME280;46837;52.446;-1.930;2023-05-31T00:45:09;101588.45;;;11.75;76.05
60642;BME280;46837;52.446;-1.930;2023-05-31T00:46:11;101587.20;;;11.77;75.83
60642;BME280;46837;52.446;-1.930;2023-05-31T00:47:09;101586.39;;;11.69;75.96
60642;BME280;46837;52.446;-1.930;2023-05-31T00:48:09;101591.18;;;11.70;75.98
60642;BME280;46837;52.446;-1.930;2023-05-31T00:49:09;101586.77;;;11.66;75.99
60642;BME280;46837;52.446;-1.930;2023-05-31T00:50:09;101588.34;;;11.60;76.38
60642;BME280;46837;52.446;-1.930;2023-05-31T00:51:09;101587.29;;;11.55;76.59
60642;BME280;46837;52.446;-1.930;2023-05-31T00:52:09;101590.36;;;11.55;76.57
60642;BME280;46837;52.446;-1.930;2023-05-31T00:53:09;101592.19;;;11.59;76.39
60642;BME280;46837;52.446;-1.930;2023-05-31T00:54:09;101590.90;;;11.59;76.33
60642;BME280;46837;52.446;-1.930;2023-05-31T00:55:09;101595.78;;;11.60;76.58
60642;BME280;46837;52.446;-1.930;2023-05-31T00:56:09;101592.96;;;11.62;76.50
60642;BME280;46837;52.446;-1.930;2023-05-31T00:57:09;101590.80;;;11.47;77.25
60642;BME280;46837;52.446;-1.930;2023-05-31T00:58:09;101590.71;;;11.50;77.03
60642;BME280;46837;52.446;-1.930;2023-05-31T00:59:09;101585.60;;;11.48;76.86
60642;BME280;46837;52.446;-1.930;2023-05-31T01:00:09;101592.80;;;11.44;77.09
60642;BME280;46837;52.446;-1.930;2023-05-31T01:01:09;101593.68;;;11.39;77.71
60642;BME280;46837;52.446;-1.930;2023-05-31T01:02:09;101591.79;;;11.35;78.16
60642;BME280;46837;52.446;-1.930;2023-05-31T01:03:11;101590.68;;;11.37;78.01
60642;BME280;46837;52.446;-1.930;2023-05-31T01:04:09;101588.21;;;11.44;77.55
60642;BME280;46837;52.446;-1.930;2023-05-31T01:05:09;101590.29;;;11.46;77.31
60642;BME280;46837;52.446;-1.930;2023-05-31T01:06:09;101589.25;;;11.49;77.11
60642;BME280;46837;52.446;-1.930;2023-05-31T01:07:09;101590.21;;;11.50;77.02
60642;BME280;46837;52.446;-1.930;2023-05-31T01:08:09;101587.70;;;11.53;77.25
60642;BME280;46837;52.446;-1.930;2023-05-31T01:09:09;101592.28;;;11.54;77.14
60642;BME280;46837;52.446;-1.930;2023-05-31T01:10:09;101587.14;;;11.47;77.38
60642;BME280;46837;52.446;-1.930;2023-05-31T01:11:22;101586.91;;;11.47;77.37
60642;BME280;46837;52.446;-1.930;2023-05-31T01:12:18;101585.27;;;11.47;77.19
60642;BME280;46837;52.446;-1.930;2023-05-31T01:16:15;101583.83;;;11.39;78.23
60642;BME280;46837;52.446;-1.930;2023-05-31T01:18:20;101583.05;;;11.33;78.12
60642;BME280;46837;52.446;-1.930;2023-05-31T01:19:16;101584.88;;;11.37;78.02
60642;BME280;46837;52.446;-1.930;2023-05-31T01:20:09;101583.48;;;11.31;78.00
60642;BME280;46837;52.446;-1.930;2023-05-31T01:21:09;101587.71;;;11.29;77.99
60642;BME280;46837;52.446;-1.930;2023-05-31T01:23:21;101579.51;;;11.27;78.07
60642;BME280;46837;52.446;-1.930;2023-05-31T01:24:22;101581.41;;;11.29;77.87
60642;BME280;46837;52.446;-1.930;2023-05-31T01:27:09;101583.20;;;11.23;78.33
60642;BME280;46837;52.446;-1.930;2023-05-31T01:28:09;101583.02;;;11.18;78.59
60642;BME280;46837;52.446;-1.930;2023-05-31T01:29:12;101587.64;;;11.17;78.82
60642;BME280;46837;52.446;-1.930;2023-05-31T01:30:09;101585.07;;;11.19;78.80
60642;BME280;46837;52.446;-1.930;2023-05-31T01:31:09;101584.43;;;11.22;78.63
60642;BME280;46837;52.446;-1.930;2023-05-31T01:32:09;101586.79;;;11.15;78.95
60642;BME280;46837;52.446;-1.930;2023-05-31T01:33:09;101589.04;;;11.13;79.01
60642;BME280;46837;52.446;-1.930;2023-05-31T01:34:09;101583.85;;;11.11;78.90
60642;BME280;46837;52.446;-1.930;2023-05-31T01:35:09;101586.37;;;11.09;79.02
60642;BME280;46837;52.446;-1.930;2023-05-31T01:36:09;101586.22;;;11.10;78.96
60642;BME280;46837;52.446;-1.930;2023-05-31T01:37:09;101581.25;;;11.12;78.88
60642;BME280;46837;52.446;-1.930;2023-05-31T01:38:09;101582.99;;;11.05;78.76
60642;BME280;46837;52.446;-1.930;2023-05-31T01:39:09;101582.80;;;11.02;78.73
60642;BME280;46837;52.446;-1.930;2023-05-31T01:40:09;101582.76;;;11.04;78.64
60642;BME280;46837;52.446;-1.930;2023-05-31T01:41:11;101585.84;;;11.07;78.54
60642;BME280;46837;52.446;-1.930;2023-05-31T01:42:10;101583.16;;;11.03;78.58
60642;BME280;46837;52.446;-1.930;2023-05-31T01:43:09;101588.58;;;11.06;78.38
60642;BME280;46837;52.446;-1.930;2023-05-31T01:44:09;101579.89;;;10.99;78.44
60642;BME280;46837;52.446;-1.930;2023-05-31T01:45:09;101579.28;;;11.01;78.35
60642;BME280;46837;52.446;-1.930;2023-05-31T01:46:09;101577.62;;;11.02;78.34
60642;BME280;46837;52.446;-1.930;2023-05-31T01:47:09;101581.74;;;11.01;78.27
60642;BME280;46837;52.446;-1.930;2023-05-31T01:48:09;101585.59;;;10.99;78.37
60642;BME280;46837;52.446;-1.930;2023-05-31T01:49:09;101574.67;;;10.95;78.26
60642;BME280;46837;52.446;-1.930;2023-05-31T01:50:13;101570.10;;;11.03;77.97
60642;BME280;46837;52.446;-1.930;2023-05-31T01:51:09;101577.74;;;11.05;77.83
60642;BME280;46837;52.446;-1.930;2023-05-31T01:52:14;101581.45;;;11.07;77.76
60642;BME280;46837;52.446;-1.930;2023-05-31T01:53:09;101582.03;;;11.04;77.69
60642;BME280;46837;52.446;-1.930;2023-05-31T01:54:09;101580.73;;;11.00;77.87
60642;BME280;46837;52.446;-1.930;2023-05-31T01:55:09;101575.61;;;11.05;77.81
60642;BME280;46837;52.446;-1.930;2023-05-31T01:56:09;101573.43;;;11.08;77.50
60642;BME280;46837;52.446;-1.930;2023-05-31T01:57:09;101578.94;;;11.09;77.49
60642;BME280;46837;52.446;-1.930;2023-05-31T01:58:09;101574.54;;;11.11;77.41
60642;BME280;46837;52.446;-1.930;2023-05-31T01:59:09;101574.98;;;11.06;77.33
60642;BME280;46837;52.446;-1.930;2023-05-31T02:00:09;101584.34;;;11.06;77.36
60642;BME280;46837;52.446;-1.930;2023-05-31T02:01:11;101578.14;;;11.05;77.48
60642;BME280;46837;52.446;-1.930;2023-05-31T02:02:09;101577.02;;;11.02;77.52
60642;BME280;46837;52.446;-1.930;2023-05-31T02:03:09;101576.14;;;11.02;77.53
60642;BME280;46837;52.446;-1.930;2023-05-31T02:04:09;101579.67;;;10.98;77.56
60642;BME280;46837;52.446;-1.930;2023-05-31T02:05:11;101576.96;;;11.02;77.54
60642;BME280;46837;52.446;-1.930;2023-05-31T02:06:09;101581.66;;;11.04;77.40
60642;BME280;46837;52.446;-1.930;2023-05-31T02:07:09;101577.79;;;11.04;77.35
60642;BME280;46837;52.446;-1.930;2023-05-31T02:08:09;101574.21;;;11.08;77.21
60642;BME280;46837;52.446;-1.930;2023-05-31T02:09:09;101570.68;;;11.05;77.41
60642;BME280;46837;52.446;-1.930;2023-05-31T02:10:09;101570.97;;;11.08;77.30
60642;BME280;46837;52.446;-1.930;2023-05-31T02:11:09;101574.91;;;11.08;77.33
60642;BME280;46837;52.446;-1.930;2023-05-31T02:12:09;101569.61;;;11.13;77.33
60642;BME280;46837;52.446;-1.930;2023-05-31T02:13:09;101571.56;;;11.12;77.17
60642;BME280;46837;52.446;-1.930;2023-05-31T02:14:09;101570.30;;;11.14;77.25
60642;BME280;46837;52.446;-1.930;2023-05-31T02:15:13;101570.83;;;11.08;77.28
60642;BME280;46837;52.446;-1.930;2023-05-31T02:16:09;101567.11;;;11.11;77.37
60642;BME280;46837;52.446;-1.930;2023-05-31T02:17:09;101570.50;;;11.16;77.22
60642;BME280;46837;52.446;-1.930;2023-05-31T02:18:09;101568.95;;;11.17;77.20
60642;BME280;46837;52.446;-1.930;2023-05-31T02:19:09;101572.32;;;11.17;77.37
60642;BME280;46837;52.446;-1.930;2023-05-31T02:20:11;101572.58;;;11.16;77.41
60642;BME280;46837;52.446;-1.930;2023-05-31T02:21:09;101576.68;;;11.14;77.55
60642;BME280;46837;52.446;-1.930;2023-05-31T02:22:09;101573.45;;;11.13;77.77
60642;BME280;46837;52.446;-1.930;2023-05-31T02:23:09;101580.28;;;11.13;77.83
60642;BME280;46837;52.446;-1.930;2023-05-31T02:24:09;101579.79;;;11.08;77.97
60642;BME280;46837;52.446;-1.930;2023-05-31T02:25:09;101581.15;;;11.06;78.33
60642;BME280;46837;52.446;-1.930;2023-05-31T02:26:09;101582.77;;;10.97;78.74
60642;BME280;46837;52.446;-1.930;2023-05-31T02:27:09;101584.45;;;10.95;78.94
60642;BME280;46837;52.446;-1.930;2023-05-31T02:28:09;101581.92;;;10.98;78.95
60642;BME280;46837;52.446;-1.930;2023-05-31T02:29:09;101581.78;;;10.97;79.06
60642;BME280;46837;52.446;-1.930;2023-05-31T02:30:09;101580.46;;;10.95;79.14
60642;BME280;46837;52.446;-1.930;2023-05-31T02:31:09;101577.62;;;10.89;79.38
60642;BME280;46837;52.446;-1.930;2023-05-31T02:32:09;101576.82;;;10.89;79.47
60642;BME280;46837;52.446;-1.930;2023-05-31T02:33:09;101579.89;;;10.83;79.79
60642;BME280;46837;52.446;-1.930;2023-05-31T02:34:09;101582.34;;;10.80;80.03
60642;BME280;46837;52.446;-1.930;2023-05-31T02:35:11;101578.25;;;10.72;80.66
60642;BME280;46837;52.446;-1.930;2023-05-31T02:36:09;101576.39;;;10.72;80.75
60642;BME280;46837;52.446;-1.930;2023-05-31T02:37:09;101578.95;;;10.71;80.61
60642;BME280;46837;52.446;-1.930;2023-05-31T02:38:09;101574.38;;;10.72;80.73
60642;BME280;46837;52.446;-1.930;2023-05-31T02:39:09;101574.00;;;10.72;80.69
60642;BME280;46837;52.446;-1.930;2023-05-31T02:40:11;101572.47;;;10.70;80.73
60642;BME280;46837;52.446;-1.930;2023-05-31T02:41:09;101570.62;;;10.68;81.08
60642;BME280;46837;52.446;-1.930;2023-05-31T02:42:09;101569.98;;;10.74;81.14
60642;BME280;46837;52.446;-1.930;2023-05-31T02:43:09;101573.38;;;10.74;81.15
60642;BME280;46837;52.446;-1.930;2023-05-31T02:44:09;101574.23;;;10.75;81.39
60642;BME280;46837;52.446;-1.930;2023-05-31T02:45:09;101570.15;;;10.74;81.18
60642;BME280;46837;52.446;-1.930;2023-05-31T02:46:09;101570.55;;;10.74;81.25
60642;BME280;46837;52.446;-1.930;2023-05-31T02:47:09;101567.48;;;10.74;81.20
60642;BME280;46837;52.446;-1.930;2023-05-31T02:48:09;101573.80;;;10.75;81.36
60642;BME280;46837;52.446;-1.930;2023-05-31T02:49:09;101571.44;;;10.68;81.53
60642;BME280;46837;52.446;-1.930;2023-05-31T02:50:09;101572.66;;;10.62;82.02
60642;BME280;46837;52.446;-1.930;2023-05-31T02:51:09;101571.48;;;10.65;82.03
60642;BME280;46837;52.446;-1.930;2023-05-31T02:52:09;101576.28;;;10.65;82.10
60642;BME280;46837;52.446;-1.930;2023-05-31T02:53:09;101570.65;;;10.65;82.04
60642;BME280;46837;52.446;-1.930;2023-05-31T02:54:09;101573.38;;;10.67;82.22
60642;BME280;46837;52.446;-1.930;2023-05-31T02:55:09;101569.48;;;10.66;82.35
60642;BME280;46837;52.446;-1.930;2023-05-31T02:56:09;101567.36;;;10.67;82.12
60642;BME280;46837;52.446;-1.930;2023-05-31T02:57:09;101571.00;;;10.63;82.50
60642;BME280;46837;52.446;-1.930;2023-05-31T02:58:09;101567.02;;;10.60;82.66
60642;BME280;46837;52.446;-1.930;2023-05-31T02:59:09;101573.23;;;10.59;82.83
60642;BME280;46837;52.446;-1.930;2023-05-31T03:00:13;101568.68;;;10.56;82.87
60642;BME280;46837;52.446;-1.930;2023-05-31T03:01:09;101563.75;;;10.58;83.30
60642;BME280;46837;52.446;-1.930;2023-05-31T03:02:09;101570.00;;;10.59;82.95
60642;BME280;46837;52.446;-1.930;2023-05-31T03:03:09;101566.45;;;10.56;83.03
60642;BME280;46837;52.446;-1.930;2023-05-31T03:04:09;101566.36;;;10.55;82.79
60642;BME280;46837;52.446;-1.930;2023-05-31T03:05:09;101567.79;;;10.54;82.75
60642;BME280;46837;52.446;-1.930;2023-05-31T03:06:09;101568.75;;;10.53;82.91
60642;BME280;46837;52.446;-1.930;2023-05-31T03:07:09;101567.75;;;10.52;83.09
60642;BME280;46837;52.446;-1.930;2023-05-31T03:08:09;101565.64;;;10.53;82.91
60642;BME280;46837;52.446;-1.930;2023-05-31T03:09:09;101568.42;;;10.55;82.82
60642;BME280;46837;52.446;-1.930;2023-05-31T03:10:09;101570.77;;;10.50;82.77
60642;BME280;46837;52.446;-1.930;2023-05-31T03:11:09;101567.34;;;10.48;82.69
60642;BME280;46837;52.446;-1.930;2023-05-31T03:12:09;101566.40;;;10.48;82.57
60642;BME280;46837;52.446;-1.930;2023-05-31T03:13:09;101565.48;;;10.47;82.71
60642;BME280;46837;52.446;-1.930;2023-05-31T03:14:09;101568.16;;;10.48;82.79
60642;BME280;46837;52.446;-1.930;2023-05-31T03:15:09;101567.43;;;10.48;82.74
60642;BME280;46837;52.446;-1.930;2023-05-31T03:16:09;101567.20;;;10.44;82.82
60642;BME280;46837;52.446;-1.930;2023-05-31T03:17:09;101565.45;;;10.45;82.71
60642;BME280;46837;52.446;-1.930;2023-05-31T03:18:09;101563.66;;;10.48;82.66
60642;BME280;46837;52.446;-1.930;2023-05-31T03:19:09;101560.85;;;10.49;82.51
60642;BME280;46837;52.446;-1.930;2023-05-31T03:20:09;101566.11;;;10.46;82.62
60642;BME280;46837;52.446;-1.930;2023-05-31T03:21:09;101561.41;;;10.46;82.73
60642;BME280;46837;52.446;-1.930;2023-05-31T03:22:09;101561.83;;;10.49;82.74
60642;BME280;46837;52.446;-1.930;2023-05-31T03:23:09;101561.22;;;10.49;82.53
60642;BME280;46837;52.446;-1.930;2023-05-31T03:24:09;101561.01;;;10.49;82.70
60642;BME280;46837;52.446;-1.930;2023-05-31T03:25:09;101556.52;;;10.55;82.54
60642;BME280;46837;52.446;-1.930;2023-05-31T03:26:09;101557.31;;;10.54;82.36
60642;BME280;46837;52.446;-1.930;2023-05-31T03:27:09;101558.23;;;10.56;82.35
60642;BME280;46837;52.446;-1.930;2023-05-31T03:28:09;101555.78;;;10.57;82.59
60642;BME280;46837;52.446;-1.930;2023-05-31T03:29:09;101555.59;;;10.59;82.53
60642;BME280;46837;52.446;-1.930;2023-05-31T03:30:09;101554.54;;;10.64;82.38
60642;BME280;46837;52.446;-1.930;2023-05-31T03:31:09;101558.87;;;10.64;82.65
60642;BME280;46837;52.446;-1.930;2023-05-31T03:32:09;101554.97;;;10.68;82.56
60642;BME280;46837;52.446;-1.930;2023-05-31T03:33:09;101554.01;;;10.70;82.48
60642;BME280;46837;52.446;-1.930;2023-05-31T03:34:09;101555.16;;;10.69;82.32
60642;BME280;46837;52.446;-1.930;2023-05-31T03:35:09;101556.64;;;10.73;82.40
60642;BME280;46837;52.446;-1.930;2023-05-31T03:36:09;101554.48;;;10.79;82.14
60642;BME280;46837;52.446;-1.930;2023-05-31T03:37:09;101557.26;;;10.76;82.11
60642;BME280;46837;52.446;-1.930;2023-05-31T03:38:09;101550.75;;;10.79;82.05
60642;BME280;46837;52.446;-1.930;2023-05-31T03:39:09;101546.36;;;10.76;81.79
60642;BME280;46837;52.446;-1.930;2023-05-31T03:40:09;101546.77;;;10.79;81.76
60642;BME280;46837;52.446;-1.930;2023-05-31T03:41:09;101545.77;;;10.78;81.67
60642;BME280;46837;52.446;-1.930;2023-05-31T03:42:09;101548.84;;;10.81;81.58
60642;BME280;46837;52.446;-1.930;2023-05-31T03:43:09;101549.38;;;10.83;81.57
60642;BME280;46837;52.446;-1.930;2023-05-31T03:44:09;101544.55;;;10.84;81.47
60642;BME280;46837;52.446;-1.930;2023-05-31T03:45:09;101549.95;;;10.86;81.29
60642;BME280;46837;52.446;-1.930;2023-05-31T03:46:09;101543.74;;;10.85;81.38
60642;BME280;46837;52.446;-1.930;2023-05-31T03:47:09;101548.89;;;10.83;81.50
60642;BME280;46837;52.446;-1.930;2023-05-31T03:48:09;101551.44;;;10.73;81.64
60642;BME280;46837;52.446;-1.930;2023-05-31T03:49:09;101549.95;;;10.77;81.66
60642;BME280;46837;52.446;-1.930;2023-05-31T03:50:09;101550.66;;;10.78;81.67
60642;BME280;46837;52.446;-1.930;2023-05-31T03:51:09;101556.21;;;10.76;81.63
60642;BME280;46837;52.446;-1.930;2023-05-31T03:52:09;101556.05;;;10.72;81.95
60642;BME280;46837;52.446;-1.930;2023-05-31T03:53:09;101560.71;;;10.68;82.42
60642;BME280;46837;52.446;-1.930;2023-05-31T03:54:09;101554.55;;;10.71;82.22
60642;BME280;46837;52.446;-1.930;2023-05-31T03:55:09;101552.39;;;10.69;82.09
60642;BME280;46837;52.446;-1.930;2023-05-31T03:56:09;101550.59;;;10.63;82.72
60642;BME280;46837;52.446;-1.930;2023-05-31T03:57:09;101553.97;;;10.67;82.86
60642;BME280;46837;52.446;-1.930;2023-05-31T03:58:09;101554.45;;;10.69;82.68
60642;BME280;46837;52.446;-1.930;2023-05-31T03:59:09;101555.45;;;10.65;83.12
60642;BME280;46837;52.446;-1.930;2023-05-31T04:00:09;101556.57;;;10.66;83.07
60642;BME280;46837;52.446;-1.930;2023-05-31T04:01:09;101558.25;;;10.70;82.94
60642;BME280;46837;52.446;-1.930;2023-05-31T04:02:09;101554.51;;;10.67;82.90
60642;BME280;46837;52.446;-1.930;2023-05-31T04:03:09;101549.86;;;10.60;83.31
60642;BME280;46837;52.446;-1.930;2023-05-31T04:04:09;101551.82;;;10.58;83.32
60642;BME280;46837;52.446;-1.930;2023-05-31T04:05:09;101548.54;;;10.58;83.38
60642;BME280;46837;52.446;-1.930;2023-05-31T04:06:09;101548.47;;;10.59;83.39
60642;BME280;46837;52.446;-1.930;2023-05-31T04:07:09;101540.16;;;10.61;83.44
60642;BME280;46837;52.446;-1.930;2023-05-31T04:08:09;101547.07;;;10.60;83.34
60642;BME280;46837;52.446;-1.930;2023-05-31T04:09:09;101545.57;;;10.57;83.43
60642;BME280;46837;52.446;-1.930;2023-05-31T04:10:09;101544.50;;;10.55;83.75
60642;BME280;46837;52.446;-1.930;2023-05-31T04:11:09;101546.18;;;10.57;84.02
60642;BME280;46837;52.446;-1.930;2023-05-31T04:12:09;101544.73;;;10.56;83.85
60642;BME280;46837;52.446;-1.930;2023-05-31T04:13:09;101547.52;;;10.56;83.85
60642;BME280;46837;52.446;-1.930;2023-05-31T04:14:09;101545.97;;;10.54;83.88
60642;BME280;46837;52.446;-1.930;2023-05-31T04:15:09;101544.17;;;10.55;84.08
60642;BME280;46837;52.446;-1.930;2023-05-31T04:16:09;101548.18;;;10.54;84.06
60642;BME280;46837;52.446;-1.930;2023-05-31T04:17:09;101546.68;;;10.53;84.06
60642;BME280;46837;52.446;-1.930;2023-05-31T04:18:09;101543.49;;;10.55;84.02
60642;BME280;46837;52.446;-1.930;2023-05-31T04:19:10;101545.22;;;10.54;84.15
60642;BME280;46837;52.446;-1.930;2023-05-31T04:20:11;101546.05;;;10.56;84.24
60642;BME280;46837;52.446;-1.930;2023-05-31T04:21:09;101541.07;;;10.58;84.04
60642;BME280;46837;52.446;-1.930;2023-05-31T04:22:09;101541.50;;;10.62;83.92
60642;BME280;46837;52.446;-1.930;2023-05-31T04:23:09;101539.44;;;10.63;83.69
60642;BME280;46837;52.446;-1.930;2023-05-31T04:24:09;101543.95;;;10.64;83.76
60642;BME280;46837;52.446;-1.930;2023-05-31T04:25:09;101538.30;;;10.64;83.87
60642;BME280;46837;52.446;-1.930;2023-05-31T04:26:09;101541.31;;;10.68;83.79
60642;BME280;46837;52.446;-1.930;2023-05-31T04:27:09;101541.55;;;10.65;83.66
60642;BME280;46837;52.446;-1.930;2023-05-31T04:28:10;101540.18;;;10.64;83.78
60642;BME280;46837;52.446;-1.930;2023-05-31T04:29:09;101542.49;;;10.67;83.73
60642;BME280;46837;52.446;-1.930;2023-05-31T04:30:09;101543.61;;;10.68;83.61
60642;BME280;46837;52.446;-1.930;2023-05-31T04:31:09;101541.20;;;10.63;83.74
60642;BME280;46837;52.446;-1.930;2023-05-31T04:32:09;101543.85;;;10.67;83.77
60642;BME280;46837;52.446;-1.930;2023-05-31T04:33:09;101545.32;;;10.69;83.87
60642;BME280;46837;52.446;-1.930;2023-05-31T04:34:09;101545.01;;;10.69;83.81
60642;BME280;46837;52.446;-1.930;2023-05-31T04:35:09;101546.43;;;10.72;83.61
60642;BME280;46837;52.446;-1.930;2023-05-31T04:36:09;101545.67;;;10.69;83.57
60642;BME280;46837;52.446;-1.930;2023-05-31T04:37:09;101543.62;;;10.75;83.46
60642;BME280;46837;52.446;-1.930;2023-05-31T04:38:09;101550.39;;;10.77;83.36
60642;BME280;46837;52.446;-1.930;2023-05-31T04:39:12;101543.84;;;10.78;83.19
60642;BME280;46837;52.446;-1.930;2023-05-31T04:40:09;101550.82;;;10.75;83.11
60642;BME280;46837;52.446;-1.930;2023-05-31T04:41:09;101542.93;;;10.74;83.08
60642;BME280;46837;52.446;-1.930;2023-05-31T04:42:09;101546.64;;;10.71;83.16
60642;BME280;46837;52.446;-1.930;2023-05-31T04:43:09;101543.47;;;10.72;83.19
60642;BME280;46837;52.446;-1.930;2023-05-31T04:44:09;101544.45;;;10.67;83.24
60642;BME280;46837;52.446;-1.930;2023-05-31T04:45:09;101542.09;;;10.66;83.33
60642;BME280;46837;52.446;-1.930;2023-05-31T04:46:09;101538.78;;;10.69;83.35
60642;BME280;46837;52.446;-1.930;2023-05-31T04:47:09;101541.38;;;10.70;83.20
60642;BME280;46837;52.446;-1.930;2023-05-31T04:48:09;101543.93;;;10.70;83.30
60642;BME280;46837;52.446;-1.930;2023-05-31T04:49:09;101546.64;;;10.67;83.42
60642;BME280;46837;52.446;-1.930;2023-05-31T04:50:09;101545.62;;;10.68;83.30
60642;BME280;46837;52.446;-1.930;2023-05-31T04:51:09;101549.36;;;10.64;83.36
60642;BME280;46837;52.446;-1.930;2023-05-31T04:52:09;101546.46;;;10.60;83.46
60642;BME280;46837;52.446;-1.930;2023-05-31T04:53:10;101541.84;;;10.58;83.50
60642;BME280;46837;52.446;-1.930;2023-05-31T04:54:09;101539.94;;;10.59;83.44
60642;BME280;46837;52.446;-1.930;2023-05-31T04:55:09;101544.01;;;10.55;83.53
60642;BME280;46837;52.446;-1.930;2023-05-31T04:56:10;101546.07;;;10.53;83.87
60642;BME280;46837;52.446;-1.930;2023-05-31T04:57:09;101540.77;;;10.53;84.01
60642;BME280;46837;52.446;-1.930;2023-05-31T04:58:09;101544.59;;;10.53;84.08
60642;BME280;46837;52.446;-1.930;2023-05-31T04:59:10;101543.88;;;10.52;84.05
60642;BME280;46837;52.446;-1.930;2023-05-31T05:00:13;101548.20;;;10.55;83.86
60642;BME280;46837;52.446;-1.930;2023-05-31T05:01:10;101546.46;;;10.54;83.94
60642;BME280;46837;52.446;-1.930;2023-05-31T05:02:09;101545.25;;;10.53;83.98
60642;BME280;46837;52.446;-1.930;2023-05-31T05:03:09;101548.74;;;10.55;83.97
60642;BME280;46837;52.446;-1.930;2023-05-31T05:04:09;101545.32;;;10.54;83.94
60642;BME280;46837;52.446;-1.930;2023-05-31T05:05:09;101552.05;;;10.51;84.19
60642;BME280;46837;52.446;-1.930;2023-05-31T05:06:13;101547.74;;;10.52;84.15
60642;BME280;46837;52.446;-1.930;2023-05-31T05:07:09;101546.24;;;10.51;84.19
60642;BME280;46837;52.446;-1.930;2023-05-31T05:08:09;101544.44;;;10.53;84.35
60642;BME280;46837;52.446;-1.930;2023-05-31T05:09:09;101546.27;;;10.52;84.13
60642;BME280;46837;52.446;-1.930;2023-05-31T05:10:09;101539.88;;;10.48;84.42
60642;BME280;46837;52.446;-1.930;2023-05-31T05:11:09;101546.61;;;10.44;84.63
60642;BME280;46837;52.446;-1.930;2023-05-31T05:12:09;101547.00;;;10.42;84.59
60642;BME280;46837;52.446;-1.930;2023-05-31T05:13:09;101548.66;;;10.41;84.88
60642;BME280;46837;52.446;-1.930;2023-05-31T05:14:09;101547.25;;;10.43;84.87
60642;BME280;46837;52.446;-1.930;2023-05-31T05:15:09;101545.70;;;10.49;84.81
60642;BME280;46837;52.446;-1.930;2023-05-31T05:16:09;101551.74;;;10.54;84.51